sensor_id;sensor_type;location;lat;lon;timestamp;pressure;altitude;pressure_sealevel;temperature;humidity
967;BME280;56108;48.730;9.304;2023-01-28T00:02:05;98172.59;;;-0.72;100.00
967;BME280;56108;48.730;9.304;2023-01-28T00:04:14;98175.03;;;-0.63;100.00
967;BME280;56108;48.730;9.304;2023-01-28T00:06:22;98173.59;;;-0.81;100.00
967;BME280;56108;48.730;9.304;2023-01-28T00:08:30;98170.94;;;-0.79;100.00
967;BME280;56108;48.730;9.304;2023-01-28T00:10:41;98170.28;;;-0.92;100.00
967;BME280;56108;48.730;9.304;2023-01-28T00:12:49;98171.06;;;-0.87;100.00
967;BME280;56108;48.730;9.304;2023-01-28T00:15:09;98164.19;;;-0.92;100.00
967;BME280;56108;48.730;9.304;2023-01-28T00:17:23;98166.63;;;-0.80;100.00
967;BME280;56108;48.730;9.304;2023-01-28T00:19:30;98165.78;;;-0.82;100.00
967;BME280;56108;48.730;9.304;2023-01-28T00:21:40;98158.59;;;-0.68;100.00
967;BME280;56108;48.730;9.304;2023-01-28T00:23:51;98162.00;;;-0.64;100.00
967;BME280;56108;48.730;9.304;2023-01-28T00:26:03;98167.41;;;-0.75;100.00
967;BME280;56108;48.730;9.304;2023-01-28T00:28:12;98162.09;;;-0.67;100.00
967;BME280;56108;48.730;9.304;2023-01-28T00:30:20;98159.41;;;-0.64;100.00
967;BME280;56108;48.730;9.304;2023-01-28T00:32:28;98159.38;;;-0.63;100.00
967;BME280;56108;48.730;9.304;2023-01-28T00:34:36;98153.28;;;-0.62;100.00
967;BME280;56108;48.730;9.304;2023-01-28T00:36:44;98159.38;;;-0.63;100.00
967;BME280;56108;48.730;9.304;2023-01-28T00:39:01;98154.16;;;-0.64;100.00
967;BME280;56108;48.730;9.304;2023-01-28T00:41:14;98139.59;;;-0.77;100.00
967;BME280;56108;48.730;9.304;2023-01-28T00:43:22;98150.91;;;-0.77;100.00
967;BME280;56108;48.730;9.304;2023-01-28T00:45:30;98146.44;;;-0.70;100.00
967;BME280;56108;48.730;9.304;2023-01-28T00:47:38;98154.13;;;-0.63;100.00
967;BME280;56108;48.730;9.304;2023-01-28T00:49:48;98153.28;;;-0.63;100.00
967;BME280;56108;48.730;9.304;2023-01-28T00:51:56;98141.88;;;-0.59;100.00
967;BME280;56108;48.730;9.304;2023-01-28T00:54:04;98148.81;;;-0.55;100.00
967;BME280;56108;48.730;9.304;2023-01-28T00:56:16;98148.94;;;-0.64;100.00
967;BME280;56108;48.730;9.304;2023-01-28T00:58:26;98149.00;;;-0.67;100.00
967;BME280;56108;48.730;9.304;2023-01-28T01:00:34;98148.09;;;-0.65;100.00
967;BME280;56108;48.730;9.304;2023-01-28T01:02:42;98151.63;;;-0.67;100.00
967;BME280;56108;48.730;9.304;2023-01-28T01:04:50;98156.13;;;-0.77;100.00
967;BME280;56108;48.730;9.304;2023-01-28T01:07:07;98156.03;;;-0.71;100.00
967;BME280;56108;48.730;9.304;2023-01-28T01:09:15;98160.41;;;-0.71;100.00
967;BME280;56108;48.730;9.304;2023-01-28T01:11:25;98157.91;;;-0.81;100.00
967;BME280;56108;48.730;9.304;2023-01-28T01:13:34;98157.03;;;-0.80;100.00
967;BME280;56108;48.730;9.304;2023-01-28T01:15:42;98150.88;;;-0.75;100.00
967;BME280;56108;48.730;9.304;2023-01-28T01:17:51;98156.94;;;-0.75;100.00
967;BME280;56108;48.730;9.304;2023-01-28T01:19:59;98152.59;;;-0.74;100.00
967;BME280;56108;48.730;9.304;2023-01-28T01:22:07;98158.53;;;-0.65;100.00
967;BME280;56108;48.730;9.304;2023-01-28T01:24:15;98159.53;;;-0.72;100.00
967;BME280;56108;48.730;9.304;2023-01-28T01:26:25;98162.94;;;-0.68;100.00
967;BME280;56108;48.730;9.304;2023-01-28T01:28:37;98157.94;;;-0.82;100.00
967;BME280;56108;48.730;9.304;2023-01-28T01:30:46;98152.50;;;-0.67;100.00
967;BME280;56108;48.730;9.304;2023-01-28T01:32:54;98155.00;;;-0.61;100.00
967;BME280;56108;48.730;9.304;2023-01-28T01:35:03;98162.78;;;-0.58;100.00
967;BME280;56108;48.730;9.304;2023-01-28T01:37:12;98156.78;;;-0.64;100.00
967;BME280;56108;48.730;9.304;2023-01-28T01:39:22;98161.91;;;-0.58;100.00
967;BME280;56108;48.730;9.304;2023-01-28T01:41:33;98168.97;;;-0.62;100.00
967;BME280;56108;48.730;9.304;2023-01-28T01:43:47;98162.75;;;-0.56;100.00
967;BME280;56108;48.730;9.304;2023-01-28T01:45:57;98165.47;;;-0.62;100.00
967;BME280;56108;48.730;9.304;2023-01-28T01:48:13;98174.19;;;-0.62;100.00
967;BME280;56108;48.730;9.304;2023-01-28T01:50:28;98167.31;;;-0.69;100.00
967;BME280;56108;48.730;9.304;2023-01-28T01:52:39;98172.38;;;-0.57;100.00
967;BME280;56108;48.730;9.304;2023-01-28T01:54:52;98176.72;;;-0.59;100.00
967;BME280;56108;48.730;9.304;2023-01-28T01:57:07;98167.44;;;-0.76;100.00
967;BME280;56108;48.730;9.304;2023-01-28T01:59:20;98175.84;;;-0.58;100.00
967;BME280;56108;48.730;9.304;2023-01-28T02:01:30;98178.38;;;-0.51;100.00
967;BME280;56108;48.730;9.304;2023-01-28T02:03:46;98179.28;;;-0.54;100.00
967;BME280;56108;48.730;9.304;2023-01-28T02:05:58;98176.56;;;-0.48;100.00
967;BME280;56108;48.730;9.304;2023-01-28T02:08:07;98171.28;;;-0.45;100.00
967;BME280;56108;48.730;9.304;2023-01-28T02:10:30;98181.06;;;-0.58;100.00
967;BME280;56108;48.730;9.304;2023-01-28T02:12:44;98171.63;;;-0.66;100.00
967;BME280;56108;48.730;9.304;2023-01-28T02:14:58;98183.81;;;-0.65;100.00
967;BME280;56108;48.730;9.304;2023-01-28T02:17:08;98178.41;;;-0.55;100.00
967;BME280;56108;48.730;9.304;2023-01-28T02:19:19;98184.59;;;-0.60;100.00
967;BME280;56108;48.730;9.304;2023-01-28T02:21:55;98184.56;;;-0.59;100.00
967;BME280;56108;48.730;9.304;2023-01-28T02:26:55;98181.97;;;-0.57;100.00
967;BME280;56108;48.730;9.304;2023-01-28T02:29:11;98180.25;;;-0.60;100.00
967;BME280;56108;48.730;9.304;2023-01-28T02:31:24;98176.66;;;-0.54;100.00
967;BME280;56108;48.730;9.304;2023-01-28T02:33:38;98179.19;;;-0.48;100.00
967;BME280;56108;48.730;9.304;2023-01-28T02:35:51;98177.81;;;-0.72;100.00
967;BME280;56108;48.730;9.304;2023-01-28T02:38:04;98173.47;;;-0.71;100.00
967;BME280;56108;48.730;9.304;2023-01-28T02:40:19;98176.06;;;-0.71;100.00
967;BME280;56108;48.730;9.304;2023-01-28T02:42:30;98176.03;;;-0.70;100.00
967;BME280;56108;48.730;9.304;2023-01-28T02:44:41;98173.50;;;-0.73;100.00
967;BME280;56108;48.730;9.304;2023-01-28T02:46:51;98175.84;;;-0.58;100.00
967;BME280;56108;48.730;9.304;2023-01-28T02:49:14;98172.38;;;-0.57;100.00
967;BME280;56108;48.730;9.304;2023-01-28T02:51:30;98176.63;;;-0.51;100.00
967;BME280;56108;48.730;9.304;2023-01-28T02:53:44;98172.97;;;-0.42;100.00
967;BME280;56108;48.730;9.304;2023-01-28T02:55:56;98180.22;;;-0.57;100.00
967;BME280;56108;48.730;9.304;2023-01-28T02:58:12;98183.72;;;-0.59;100.00
967;BME280;56108;48.730;9.304;2023-01-28T03:00:28;98179.97;;;-0.41;100.00
967;BME280;56108;48.730;9.304;2023-01-28T03:02:44;98184.16;;;-0.31;100.00
967;BME280;56108;48.730;9.304;2023-01-28T03:05:02;98191.47;;;-0.51;100.00
967;BME280;56108;48.730;9.304;2023-01-28T03:07:14;98186.19;;;-0.50;100.00
967;BME280;56108;48.730;9.304;2023-01-28T03:09:23;98192.50;;;-0.65;100.00
967;BME280;56108;48.730;9.304;2023-01-28T03:11:34;98189.69;;;-0.53;100.00
967;BME280;56108;48.730;9.304;2023-01-28T03:13:55;98190.78;;;-0.66;100.00
967;BME280;56108;48.730;9.304;2023-01-28T03:16:18;98183.13;;;-0.76;100.00
967;BME280;56108;48.730;9.304;2023-01-28T03:18:44;98190.78;;;-0.66;100.00
967;BME280;56108;48.730;9.304;2023-01-28T03:21:08;98190.69;;;-0.60;100.00
967;BME280;56108;48.730;9.304;2023-01-28T03:23:36;98188.22;;;-0.69;100.00
967;BME280;56108;48.730;9.304;2023-01-28T03:26:00;98186.47;;;-0.68;100.00
967;BME280;56108;48.730;9.304;2023-01-28T03:28:25;98182.75;;;-0.52;100.00
967;BME280;56108;48.730;9.304;2023-01-28T03:30:51;98185.50;;;-0.61;100.00
967;BME280;56108;48.730;9.304;2023-01-28T03:33:26;98183.81;;;-0.65;100.00
967;BME280;56108;48.730;9.304;2023-01-28T03:35:48;98183.84;;;-0.68;100.00
967;BME280;56108;48.730;9.304;2023-01-28T03:38:08;98183.63;;;-0.53;100.00
967;BME280;56108;48.730;9.304;2023-01-28T03:40:28;98182.81;;;-0.57;100.00
967;BME280;56108;48.730;9.304;2023-01-28T03:42:36;98185.50;;;-0.61;100.00
967;BME280;56108;48.730;9.304;2023-01-28T03:44:50;98186.44;;;-0.65;100.00
967;BME280;56108;48.730;9.304;2023-01-28T03:46:59;98184.75;;;-0.68;100.00
967;BME280;56108;48.730;9.304;2023-01-28T03:49:14;98190.59;;;-0.52;100.00
967;BME280;56108;48.730;9.304;2023-01-28T03:51:23;98196.75;;;-0.58;100.00
967;BME280;56108;48.730;9.304;2023-01-28T03:53:31;98195.03;;;-0.59;100.00
967;BME280;56108;48.730;9.304;2023-01-28T03:55:39;98197.53;;;-0.53;100.00
967;BME280;56108;48.730;9.304;2023-01-28T03:57:48;98205.34;;;-0.49;100.00
967;BME280;56108;48.730;9.304;2023-01-28T03:59:56;98200.94;;;-0.46;100.00
967;BME280;56108;48.730;9.304;2023-01-28T04:02:05;98196.66;;;-0.50;100.00
967;BME280;56108;48.730;9.304;2023-01-28T04:04:17;98197.47;;;-0.48;100.00
967;BME280;56108;48.730;9.304;2023-01-28T04:06:32;98191.50;;;-0.55;100.00
967;BME280;56108;48.730;9.304;2023-01-28T04:09:15;98193.25;;;-0.55;100.00
967;BME280;56108;48.730;9.304;2023-01-28T04:11:32;98188.94;;;-0.59;100.00
967;BME280;56108;48.730;9.304;2023-01-28T04:13:42;98190.78;;;-0.66;100.00
967;BME280;56108;48.730;9.304;2023-01-28T04:15:51;98190.03;;;-0.72;100.00
967;BME280;56108;48.730;9.304;2023-01-28T04:18:00;98191.56;;;-0.59;100.00
967;BME280;56108;48.730;9.304;2023-01-28T04:20:15;98195.97;;;-0.63;100.00
967;BME280;56108;48.730;9.304;2023-01-28T04:22:24;98195.13;;;-0.65;100.00
967;BME280;56108;48.730;9.304;2023-01-28T04:24:35;98205.47;;;-0.59;100.00
967;BME280;56108;48.730;9.304;2023-01-28T04:26:43;98204.84;;;-0.73;100.00
967;BME280;56108;48.730;9.304;2023-01-28T04:28:52;98206.56;;;-0.73;100.00
967;BME280;56108;48.730;9.304;2023-01-28T04:31:01;98207.47;;;-0.74;100.00
967;BME280;56108;48.730;9.304;2023-01-28T04:33:23;98209.91;;;-0.64;100.00
967;BME280;56108;48.730;9.304;2023-01-28T04:35:43;98212.63;;;-0.70;100.00
967;BME280;56108;48.730;9.304;2023-01-28T04:38:20;98217.72;;;-0.61;100.00
967;BME280;56108;48.730;9.304;2023-01-28T04:40:38;98220.38;;;-0.62;100.00
967;BME280;56108;48.730;9.304;2023-01-28T04:42:53;98218.63;;;-0.62;100.00
967;BME280;56108;48.730;9.304;2023-01-28T04:45:14;98224.56;;;-0.54;100.00
967;BME280;56108;48.730;9.304;2023-01-28T04:47:33;98229.88;;;-0.58;100.00
967;BME280;56108;48.730;9.304;2023-01-28T04:50:00;98227.41;;;-0.67;100.00
967;BME280;56108;48.730;9.304;2023-01-28T04:52:23;98232.59;;;-0.64;100.00
967;BME280;56108;48.730;9.304;2023-01-28T04:54:49;98230.94;;;-0.70;100.00
967;BME280;56108;48.730;9.304;2023-01-28T04:56:58;98223.13;;;-0.71;100.00
967;BME280;56108;48.730;9.304;2023-01-28T04:59:07;98227.31;;;-0.61;100.00
967;BME280;56108;48.730;9.304;2023-01-28T05:01:15;98225.66;;;-0.68;100.00
967;BME280;56108;48.730;9.304;2023-01-28T05:03:24;98229.09;;;-0.65;100.00
967;BME280;56108;48.730;9.304;2023-01-28T05:05:35;98221.22;;;-0.63;100.00
967;BME280;56108;48.730;9.304;2023-01-28T05:08:10;98223.06;;;-0.67;100.00
967;BME280;56108;48.730;9.304;2023-01-28T05:10:18;98220.38;;;-0.64;100.00
967;BME280;56108;48.730;9.304;2023-01-28T05:12:26;98229.09;;;-0.65;100.00
967;BME280;56108;48.730;9.304;2023-01-28T05:14:39;98229.72;;;-0.47;100.00
967;BME280;56108;48.730;9.304;2023-01-28T05:16:54;98217.41;;;-0.39;100.00
967;BME280;56108;48.730;9.304;2023-01-28T05:19:09;98218.31;;;-0.43;100.00
967;BME280;56108;48.730;9.304;2023-01-28T05:21:25;98233.28;;;-0.53;100.00
967;BME280;56108;48.730;9.304;2023-01-28T05:23:41;98224.41;;;-0.43;100.00
967;BME280;56108;48.730;9.304;2023-01-28T05:25:49;98222.78;;;-0.50;100.00
967;BME280;56108;48.730;9.304;2023-01-28T05:27:57;98234.25;;;-0.57;100.00
967;BME280;56108;48.730;9.304;2023-01-28T05:30:07;98232.28;;;-0.44;100.00
967;BME280;56108;48.730;9.304;2023-01-28T05:32:15;98223.78;;;-0.57;100.00
967;BME280;56108;48.730;9.304;2023-01-28T05:34:30;98226.34;;;-0.54;100.00
967;BME280;56108;48.730;9.304;2023-01-28T05:36:50;98224.75;;;-0.64;100.00
967;BME280;56108;48.730;9.304;2023-01-28T05:39:11;98224.78;;;-0.66;100.00
967;BME280;56108;48.730;9.304;2023-01-28T05:41:19;98217.75;;;-0.62;100.00
967;BME280;56108;48.730;9.304;2023-01-28T05:43:36;98231.75;;;-0.66;100.00
967;BME280;56108;48.730;9.304;2023-01-28T05:45:55;98223.16;;;-0.74;100.00
967;BME280;56108;48.730;9.304;2023-01-28T05:48:17;98223.06;;;-0.68;100.00
967;BME280;56108;48.730;9.304;2023-01-28T05:50:41;98227.19;;;-0.52;100.00
967;BME280;56108;48.730;9.304;2023-01-28T05:52:54;98226.47;;;-0.62;100.00
967;BME280;56108;48.730;9.304;2023-01-28T05:55:10;98230.72;;;-0.58;100.00
967;BME280;56108;48.730;9.304;2023-01-28T05:57:18;98233.28;;;-0.51;100.00
967;BME280;56108;48.730;9.304;2023-01-28T05:59:27;98236.00;;;-0.59;100.00
967;BME280;56108;48.730;9.304;2023-01-28T06:01:36;98233.34;;;-0.58;100.00
967;BME280;56108;48.730;9.304;2023-01-28T06:03:44;98234.88;;;-0.43;100.00
967;BME280;56108;48.730;9.304;2023-01-28T06:05:52;98238.38;;;-0.44;100.00
967;BME280;56108;48.730;9.304;2023-01-28T06:08:00;98243.56;;;-0.42;100.00
967;BME280;56108;48.730;9.304;2023-01-28T06:10:11;98243.78;;;-0.55;100.00
967;BME280;56108;48.730;9.304;2023-01-28T06:12:22;98243.56;;;-0.42;100.00
967;BME280;56108;48.730;9.304;2023-01-28T06:14:50;98254.94;;;-0.43;100.00
967;BME280;56108;48.730;9.304;2023-01-28T06:17:13;98254.84;;;-0.39;100.00
967;BME280;56108;48.730;9.304;2023-01-28T06:19:29;98259.13;;;-0.33;100.00
967;BME280;56108;48.730;9.304;2023-01-28T06:21:40;98262.69;;;-0.37;100.00
967;BME280;56108;48.730;9.304;2023-01-28T06:23:50;98274.03;;;-0.38;100.00
967;BME280;56108;48.730;9.304;2023-01-28T06:26:00;98269.69;;;-0.39;100.00
967;BME280;56108;48.730;9.304;2023-01-28T06:28:08;98273.13;;;-0.37;100.00
967;BME280;56108;48.730;9.304;2023-01-28T06:30:17;98277.41;;;-0.32;100.00
967;BME280;56108;48.730;9.304;2023-01-28T06:32:25;98280.88;;;-0.30;100.00
967;BME280;56108;48.730;9.304;2023-01-28T06:34:33;98282.50;;;-0.22;100.00
967;BME280;56108;48.730;9.304;2023-01-28T06:36:41;98290.41;;;-0.25;100.00
967;BME280;56108;48.730;9.304;2023-01-28T06:38:48;98291.28;;;-0.25;100.00
967;BME280;56108;48.730;9.304;2023-01-28T06:40:56;98292.16;;;-0.28;100.00
967;BME280;56108;48.730;9.304;2023-01-28T06:43:07;98294.88;;;-0.34;100.00
967;BME280;56108;48.730;9.304;2023-01-28T06:45:15;98294.69;;;-0.21;100.00
967;BME280;56108;48.730;9.304;2023-01-28T06:47:23;98296.56;;;-0.30;100.00
967;BME280;56108;48.730;9.304;2023-01-28T06:49:31;98295.72;;;-0.30;100.00
967;BME280;56108;48.730;9.304;2023-01-28T06:51:40;98293.19;;;-0.38;100.00
967;BME280;56108;48.730;9.304;2023-01-28T06:53:49;98295.78;;;-0.35;100.00
967;BME280;56108;48.730;9.304;2023-01-28T06:55:57;98307.69;;;-0.17;100.00
967;BME280;56108;48.730;9.304;2023-01-28T06:58:08;98303.66;;;-0.36;100.00
967;BME280;56108;48.730;9.304;2023-01-28T07:00:17;98310.59;;;-0.37;100.00
967;BME280;56108;48.730;9.304;2023-01-28T07:02:25;98304.44;;;-0.31;100.00
967;BME280;56108;48.730;9.304;2023-01-28T07:04:33;98307.84;;;-0.28;100.00
967;BME280;56108;48.730;9.304;2023-01-28T07:06:41;98313.97;;;-0.29;100.00
967;BME280;56108;48.730;9.304;2023-01-28T07:08:49;98314.31;;;-0.51;100.00
967;BME280;56108;48.730;9.304;2023-01-28T07:10:58;98305.50;;;-0.44;100.00
967;BME280;56108;48.730;9.304;2023-01-28T07:13:11;98309.88;;;-0.45;100.00
967;BME280;56108;48.730;9.304;2023-01-28T07:15:19;98308.09;;;-0.43;100.00
967;BME280;56108;48.730;9.304;2023-01-28T07:17:27;98306.31;;;-0.41;100.00
967;BME280;56108;48.730;9.304;2023-01-28T07:19:36;98309.59;;;-0.25;100.00
967;BME280;56108;48.730;9.304;2023-01-28T07:21:44;98310.59;;;-0.37;100.00
967;BME280;56108;48.730;9.304;2023-01-28T07:23:52;98317.53;;;-0.31;100.00
967;BME280;56108;48.730;9.304;2023-01-28T07:26:02;98312.09;;;-0.19;100.00
967;BME280;56108;48.730;9.304;2023-01-28T07:28:13;98322.50;;;-0.16;100.00
967;BME280;56108;48.730;9.304;2023-01-28T07:30:25;98321.78;;;-0.25;100.00
967;BME280;56108;48.730;9.304;2023-01-28T07:32:33;98321.97;;;-0.38;100.00
967;BME280;56108;48.730;9.304;2023-01-28T07:34:41;98322.59;;;-0.20;100.00
967;BME280;56108;48.730;9.304;2023-01-28T07:36:49;98329.47;;;-0.15;100.00
967;BME280;56108;48.730;9.304;2023-01-28T07:38:57;98325.91;;;-0.11;100.00
967;BME280;56108;48.730;9.304;2023-01-28T07:41:07;98331.25;;;-0.17;100.00
967;BME280;56108;48.730;9.304;2023-01-28T07:43:18;98334.00;;;-0.26;100.00
967;BME280;56108;48.730;9.304;2023-01-28T07:45:27;98328.69;;;-0.20;100.00
967;BME280;56108;48.730;9.304;2023-01-28T07:47:35;98334.84;;;-0.24;100.00
967;BME280;56108;48.730;9.304;2023-01-28T07:49:44;98319.81;;;-0.11;100.00
967;BME280;56108;48.730;9.304;2023-01-28T07:51:52;98332.91;;;-0.11;100.00
967;BME280;56108;48.730;9.304;2023-01-28T07:54:00;98331.09;;;-0.08;100.00
967;BME280;56108;48.730;9.304;2023-01-28T07:56:08;98333.56;;;0.03;100.00
967;BME280;56108;48.730;9.304;2023-01-28T07:58:18;98346.84;;;-0.11;100.00
967;BME280;56108;48.730;9.304;2023-01-28T08:00:28;98339.88;;;-0.12;100.00
967;BME280;56108;48.730;9.304;2023-01-28T08:02:37;98339.78;;;-0.06;100.00
967;BME280;56108;48.730;9.304;2023-01-28T08:04:45;98348.50;;;-0.04;100.00
967;BME280;56108;48.730;9.304;2023-01-28T08:06:53;98348.31;;;0.07;100.00
967;BME280;56108;48.730;9.304;2023-01-28T08:09:01;98353.50;;;0.12;100.00
967;BME280;56108;48.730;9.304;2023-01-28T08:11:10;98358.91;;;0.01;100.00
967;BME280;56108;48.730;9.304;2023-01-28T08:13:20;98362.47;;;-0.05;100.00
967;BME280;56108;48.730;9.304;2023-01-28T08:15:28;98363.88;;;0.18;100.00
967;BME280;56108;48.730;9.304;2023-01-28T08:17:39;98366.34;;;0.27;100.00
967;BME280;56108;48.730;9.304;2023-01-28T08:19:47;98361.97;;;0.26;100.00
967;BME280;56108;48.730;9.304;2023-01-28T08:21:55;98365.19;;;0.43;100.00
967;BME280;56108;48.730;9.304;2023-01-28T08:24:04;98365.47;;;0.27;100.00
967;BME280;56108;48.730;9.304;2023-01-28T08:26:12;98367.84;;;0.40;100.00
967;BME280;56108;48.730;9.304;2023-01-28T08:28:22;98368.47;;;0.58;100.00
967;BME280;56108;48.730;9.304;2023-01-28T08:30:31;98364.25;;;0.46;100.00
967;BME280;56108;48.730;9.304;2023-01-28T08:32:41;98375.56;;;0.49;100.00
967;BME280;56108;48.730;9.304;2023-01-28T08:34:49;98379.13;;;0.45;100.00
967;BME280;56108;48.730;9.304;2023-01-28T08:36:58;98369.59;;;0.40;100.00
967;BME280;56108;48.730;9.304;2023-01-28T08:39:12;98373.72;;;0.55;100.00
967;BME280;56108;48.730;9.304;2023-01-28T08:41:21;98380.03;;;0.43;100.00
967;BME280;56108;48.730;9.304;2023-01-28T08:43:33;98377.28;;;0.50;100.00
967;BME280;56108;48.730;9.304;2023-01-28T08:45:43;98381.50;;;0.59;100.00
967;BME280;56108;48.730;9.304;2023-01-28T08:47:52;98374.56;;;0.58;100.00
967;BME280;56108;48.730;9.304;2023-01-28T08:50:00;98384.84;;;0.67;100.00
967;BME280;56108;48.730;9.304;2023-01-28T08:52:10;98382.69;;;0.40;100.00
967;BME280;56108;48.730;9.304;2023-01-28T08:54:18;98382.34;;;0.63;100.00
967;BME280;56108;48.730;9.304;2023-01-28T08:56:26;98383.09;;;0.68;100.00
967;BME280;56108;48.730;9.304;2023-01-28T08:58:37;98376.38;;;0.51;100.00
967;BME280;56108;48.730;9.304;2023-01-28T09:00:46;98385.66;;;0.71;100.00
967;BME280;56108;48.730;9.304;2023-01-28T09:02:54;98386.03;;;1.00;100.00
967;BME280;56108;48.730;9.304;2023-01-28T09:05:02;98390.69;;;0.85;100.00
967;BME280;56108;48.730;9.304;2023-01-28T09:07:11;98384.94;;;1.11;100.00
967;BME280;56108;48.730;9.304;2023-01-28T09:09:19;98389.13;;;1.21;100.00
967;BME280;56108;48.730;9.304;2023-01-28T09:11:27;98392.03;;;1.04;100.00
967;BME280;56108;48.730;9.304;2023-01-28T09:13:38;98396.75;;;0.87;100.00
967;BME280;56108;48.730;9.304;2023-01-28T09:15:46;98387.78;;;0.98;100.00
967;BME280;56108;48.730;9.304;2023-01-28T09:17:56;98399.81;;;1.09;100.00
967;BME280;56108;48.730;9.304;2023-01-28T09:20:06;98401.47;;;1.14;100.00
967;BME280;56108;48.730;9.304;2023-01-28T09:22:15;98400.41;;;1.26;100.00
967;BME280;56108;48.730;9.304;2023-01-28T09:24:24;98395.34;;;1.59;100.00
967;BME280;56108;48.730;9.304;2023-01-28T09:26:32;98403.78;;;1.74;100.00
967;BME280;56108;48.730;9.304;2023-01-28T09:28:46;98409.03;;;1.74;100.00
967;BME280;56108;48.730;9.304;2023-01-28T09:31:02;98406.94;;;1.48;100.00
967;BME280;56108;48.730;9.304;2023-01-28T09:33:10;98409.91;;;1.32;100.00
967;BME280;56108;48.730;9.304;2023-01-28T09:35:22;98421.56;;;1.15;100.00
967;BME280;56108;48.730;9.304;2023-01-28T09:37:37;98426.03;;;1.09;100.00
967;BME280;56108;48.730;9.304;2023-01-28T09:39:45;98414.88;;;0.97;100.00
967;BME280;56108;48.730;9.304;2023-01-28T09:41:59;98413.63;;;1.18;100.00
967;BME280;56108;48.730;9.304;2023-01-28T09:44:27;98415.63;;;1.04;100.00
967;BME280;56108;48.730;9.304;2023-01-28T09:46:39;98417.94;;;1.22;100.00
967;BME280;56108;48.730;9.304;2023-01-28T09:48:51;98420.91;;;1.49;100.00
967;BME280;56108;48.730;9.304;2023-01-28T09:50:59;98423.34;;;1.56;100.00
967;BME280;56108;48.730;9.304;2023-01-28T09:53:12;98429.88;;;1.37;100.00
967;BME280;56108;48.730;9.304;2023-01-28T09:55:30;98434.28;;;1.35;100.00
967;BME280;56108;48.730;9.304;2023-01-28T09:57:41;98430.84;;;1.33;100.00
967;BME280;56108;48.730;9.304;2023-01-28T09:59:52;98430.22;;;1.19;100.00
967;BME280;56108;48.730;9.304;2023-01-28T10:02:10;98439.22;;;1.04;100.00
967;BME280;56108;48.730;9.304;2023-01-28T10:04:33;98442.81;;;0.98;100.00
967;BME280;56108;48.730;9.304;2023-01-28T10:06:54;98435.72;;;1.05;100.00
967;BME280;56108;48.730;9.304;2023-01-28T10:09:31;98438.16;;;1.16;100.00
967;BME280;56108;48.730;9.304;2023-01-28T10:11:50;98435.47;;;1.20;100.00
967;BME280;56108;48.730;9.304;2023-01-28T10:14:05;98436.03;;;0.87;100.00
967;BME280;56108;48.730;9.304;2023-01-28T10:16:25;98440.34;;;0.91;100.00
967;BME280;56108;48.730;9.304;2023-01-28T10:18:39;98425.28;;;1.02;100.00
967;BME280;56108;48.730;9.304;2023-01-28T10:20:54;98429.88;;;0.91;100.00
967;BME280;56108;48.730;9.304;2023-01-28T10:23:09;98427.34;;;0.85;100.00
967;BME280;56108;48.730;9.304;2023-01-28T10:25:20;98427.28;;;0.89;100.00
967;BME280;56108;48.730;9.304;2023-01-28T10:27:30;98427.41;;;0.82;100.00
967;BME280;56108;48.730;9.304;2023-01-28T10:29:39;98420.06;;;1.02;100.00
967;BME280;56108;48.730;9.304;2023-01-28T10:31:59;98417.66;;;0.88;100.00
967;BME280;56108;48.730;9.304;2023-01-28T10:34:10;98417.03;;;0.75;100.00
967;BME280;56108;48.730;9.304;2023-01-28T10:36:18;98414.19;;;0.89;100.00
967;BME280;56108;48.730;9.304;2023-01-28T10:38:26;98421.94;;;0.94;100.00
967;BME280;56108;48.730;9.304;2023-01-28T10:40:34;98409.59;;;1.00;100.00
967;BME280;56108;48.730;9.304;2023-01-28T10:42:44;98407.84;;;1.01;100.00
967;BME280;56108;48.730;9.304;2023-01-28T10:44:52;98421.03;;;0.96;100.00
967;BME280;56108;48.730;9.304;2023-01-28T10:47:10;98421.06;;;0.93;100.00
967;BME280;56108;48.730;9.304;2023-01-28T10:49:23;98412.41;;;0.90;100.00
967;BME280;56108;48.730;9.304;2023-01-28T10:51:34;98401.81;;;0.96;100.00
967;BME280;56108;48.730;9.304;2023-01-28T10:53:44;98401.63;;;1.07;100.00
967;BME280;56108;48.730;9.304;2023-01-28T10:55:56;98398.94;;;1.10;100.00
967;BME280;56108;48.730;9.304;2023-01-28T10:58:13;98406.09;;;1.46;100.00
967;BME280;56108;48.730;9.304;2023-01-28T11:00:26;98410.97;;;1.20;100.00
967;BME280;56108;48.730;9.304;2023-01-28T11:02:38;98410.50;;;0.99;100.00
967;BME280;56108;48.730;9.304;2023-01-28T11:04:46;98408.66;;;1.03;100.00
967;BME280;56108;48.730;9.304;2023-01-28T11:06:56;98399.94;;;1.02;100.00
967;BME280;56108;48.730;9.304;2023-01-28T11:09:19;98419.31;;;1.40;100.00
967;BME280;56108;48.730;9.304;2023-01-28T11:11:28;98426.78;;;1.17;100.00
967;BME280;56108;48.730;9.304;2023-01-28T11:13:48;98417.69;;;1.35;100.00
967;BME280;56108;48.730;9.304;2023-01-28T11:16:00;98416.34;;;1.59;100.00
967;BME280;56108;48.730;9.304;2023-01-28T11:18:17;98418.22;;;1.52;100.00
967;BME280;56108;48.730;9.304;2023-01-28T11:20:27;98421.06;;;1.41;100.00
967;BME280;56108;48.730;9.304;2023-01-28T11:22:41;98421.94;;;1.40;100.00
967;BME280;56108;48.730;9.304;2023-01-28T11:24:49;98414.28;;;1.29;100.00
967;BME280;56108;48.730;9.304;2023-01-28T11:27:07;98417.09;;;1.20;100.00
967;BME280;56108;48.730;9.304;2023-01-28T11:29:21;98414.19;;;1.34;100.00
967;BME280;56108;48.730;9.304;2023-01-28T11:31:42;98420.03;;;1.48;100.00
967;BME280;56108;48.730;9.304;2023-01-28T11:33:55;98416.44;;;1.54;100.00
967;BME280;56108;48.730;9.304;2023-01-28T11:36:10;98420.91;;;1.49;100.00
967;BME280;56108;48.730;9.304;2023-01-28T11:38:21;98423.75;;;1.38;100.00
967;BME280;56108;48.730;9.304;2023-01-28T11:40:29;98421.38;;;1.24;100.00
967;BME280;56108;48.730;9.304;2023-01-28T11:42:37;98416.84;;;1.33;100.00
967;BME280;56108;48.730;9.304;2023-01-28T11:44:46;98421.84;;;1.46;100.00
967;BME280;56108;48.730;9.304;2023-01-28T11:47:09;98417.38;;;1.51;100.00
967;BME280;56108;48.730;9.304;2023-01-28T11:49:31;98420.47;;;1.70;100.00
967;BME280;56108;48.730;9.304;2023-01-28T11:51:45;98422.31;;;1.65;100.00
967;BME280;56108;48.730;9.304;2023-01-28T11:54:05;98415.44;;;1.60;100.00
967;BME280;56108;48.730;9.304;2023-01-28T11:56:26;98421.38;;;1.24;100.00
967;BME280;56108;48.730;9.304;2023-01-28T11:58:42;98418.06;;;1.16;100.00